Bornholm — C4KF2 — position and weather

sailwx.info

Track history (hours):
 
Tides and Currents Weather Stations Pressure Air Temp Water Temp Dewpoint Dewpoint Depression Visibility Wind Speed Wind Dir Waves Ship Positions

Bornholm

Last reported at 2014-Aug-25 11:16 UTC. Time now 2014-Aug-29 01:30 UTC.
Position N 55°36' E 015°18'.

Length 118 m; draft 7.3 m.

Type: Cargo ship. MMSI: 212521000.

Date/timePositionNaut miles runAvg speedWind from/ knotsBaromVisibWave heightAir tempDewpointWater temp
2014-Aug-25 11:16N 55°36' E 015°18'912.6
2014-Aug-25 10:33N 55°31' E 015°04'1312.5
2014-Aug-25 09:32N 55°25' E 014°44'1212.3
2014-Aug-25 08:33N 55°17' E 014°29'2311.6
2014-Aug-25 06:33N 55°11' E 013°49'2613.1
2014-Aug-25 04:33N 55°13' E 013°04'1312.6
2014-Aug-25 03:33N 55°16' E 012°42'1110.7
2014-Aug-25 02:33N 55°27' E 012°40'1211.7
2014-Aug-25 01:33N 55°39' E 012°41'1212.2
2014-Aug-25 00:33N 55°51' E 012°41'1212.0
2014-Aug-24 23:33N 56°03' E 012°38'1312.9
2014-Aug-24 22:33N 56°11' E 012°20'1212.2
2014-Aug-24 21:33N 56°18' E 012°03'5713.0
2014-Aug-24 17:11N 57°12' E 011°33'812.9
2014-Aug-24 16:33N 57°20' E 011°28'1312.6
2014-Aug-24 15:33N 57°28' E 011°11'1312.8
2014-Aug-24 14:33N 57°36' E 010°51'10 6.7
2014-Aug-24 13:07N 57°42' E 010°36'0 0.1
2014-Aug-24 12:31N 57°42' E 010°36'0 0.0
2014-Aug-24 11:31N 57°42' E 010°36'3 2.9
2014-Aug-24 10:33N 57°43' E 010°41'8 8.5
2014-Aug-24 09:34N 57°47' E 010°27'1313.1
2014-Aug-24 08:33N 57°48' E 010°02'12012.0
2014-Aug-23 22:33N 58°08' E 006°19'1111.4
2014-Aug-23 21:33N 58°16' E 006°03'1211.8
2014-Aug-23 20:33N 58°24' E 005°47'1211.5
2014-Aug-23 19:32N 58°33' E 005°33'52 3.2
2014-Aug-23 03:31N 59°23' E 006°03'0 0.0
2014-Aug-23 02:31N 59°23' E 006°03'0 0.0
2014-Aug-23 01:31N 59°23' E 006°03'0 0.0
2014-Aug-23 00:31N 59°23' E 006°03'0 0.0
2014-Aug-22 23:31N 59°23' E 006°03'0 0.0
2014-Aug-22 22:31N 59°23' E 006°03'4 4.3
2014-Aug-22 21:33N 59°20' E 005°56'1413.7
2014-Aug-22 20:33N 59°11' E 005°36'1312.6
2014-Aug-22 19:33N 59°01' E 005°21'1211.5
2014-Aug-22 18:31N 58°50' E 005°23'0 0.0
2014-Aug-22 17:31N 58°50' E 005°23'0 0.0
2014-Aug-22 16:31N 58°50' E 005°23'0 0.0
2014-Aug-22 15:31N 58°50' E 005°23'0 0.0
2014-Aug-22 14:31N 58°50' E 005°23'0 0.0
2014-Aug-22 13:31N 58°50' E 005°23'0 0.0
2014-Aug-22 12:31N 58°50' E 005°23'0 0.0
2014-Aug-22 11:31N 58°50' E 005°23'0 0.0
2014-Aug-22 10:31N 58°50' E 005°23'0 0.0
2014-Aug-22 09:31N 58°50' E 005°23'0 0.0
2014-Aug-22 08:28N 58°50' E 005°23'0 0.0
2014-Aug-22 07:31N 58°50' E 005°23'0 0.0
2014-Aug-22 06:31N 58°50' E 005°23'0 0.0
2014-Aug-22 05:31N 58°50' E 005°23'0 0.0
2014-Aug-22 04:31N 58°50' E 005°23'0 0.0
2014-Aug-22 03:31N 58°50' E 005°23'0 0.0
2014-Aug-22 02:31N 58°50' E 005°23'0 0.0
2014-Aug-22 01:31N 58°50' E 005°23'0 0.0
2014-Aug-22 00:31N 58°50' E 005°23'0 0.0
2014-Aug-21 23:31N 58°50' E 005°23'0 0.1
2014-Aug-21 22:31N 58°50' E 005°23'0 0.0
2014-Aug-21 21:31N 58°49' E 005°23'0 0.0
2014-Aug-21 20:31N 58°49' E 005°23'0 0.0
2014-Aug-21 19:31N 58°49' E 005°23'8 7.9
2014-Aug-21 18:33N 58°45' E 005°11'308 7.9
2014-Aug-20 03:18N 55°08' W 001°31'0 0.0
2014-Aug-20 02:33N 55°08' W 001°31'0 0.0
2014-Aug-20 01:33N 55°08' W 001°31'0 0.0
2014-Aug-20 00:27N 55°08' W 001°31'0 0.0
2014-Aug-19 23:27N 55°08' W 001°31'0 0.0
2014-Aug-19 16:24N 55°08' W 001°31'22 2.5
2014-Aug-19 07:26N 55°02' W 000°54'1011.5
2014-Aug-19 06:33N 54°60' W 000°37'1211.8
2014-Aug-19 05:33N 54°58' W 000°16'1311.3
2014-Aug-19 04:24N 54°52' E 000°04'1011.5
2014-Aug-19 03:33N 54°45' E 000°16'1211.4
2014-Aug-19 02:29N 54°36' E 000°31'1011.2
2014-Aug-19 01:33N 54°29' E 000°44'8011.1
2014-Aug-18 18:19N 53°13' E 001°29'1012.6
2014-Aug-18 17:34N 53°04' E 001°29'1211.8
2014-Aug-18 16:34N 52°54' E 001°40'1111.2
2014-Aug-18 15:33N 52°47' E 001°55'10 9.7
2014-Aug-18 14:30N 52°38' E 002°03'9 9.7
2014-Aug-18 13:33N 52°30' E 002°10'11 9.6
2014-Aug-18 12:27N 52°20' E 002°09'1011.2
2014-Aug-18 11:33N 52°10' E 002°07'1312.3
2014-Aug-18 10:29N 51°57' E 002°13'1212.3
2014-Aug-18 09:29N 51°45' E 002°09'1313.5
2014-Aug-18 08:33N 51°34' E 001°59'1110.7
2014-Aug-18 07:33N 51°24' E 002°04'1211.3
2014-Aug-18 06:29N 51°12' E 001°59'1314.6
2014-Aug-18 05:33N 51°06' E 001°40'4113.8
2014-Aug-18 02:34N 50°32' E 001°02'1413.7
2014-Aug-18 01:33N 50°27' E 000°42'1413.9
2014-Aug-18 00:33N 50°23' E 000°21'25212.6
2014-Aug-17 04:33N 48°46' W 005°36'  
Track history (hours):
 
Tides and Currents Weather Stations Pressure Air Temp Water Temp Dewpoint Dewpoint Depression Visibility Wind Speed Wind Dir Waves Ship Positions

Bornholm

Last reported at 2014-Aug-25 11:16 UTC. Time now 2014-Aug-29 01:30 UTC.
Position N 55°36' E 015°18'.

Length 118 m; draft 7.3 m.

Type: Cargo ship. MMSI: 212521000.

Date/timePositionNaut miles runAvg speedWind from/ knotsBaromVisibWave heightAir tempDewpointWater temp
2014-Aug-25 11:16N 55°36' E 015°18'912.6
2014-Aug-25 10:33N 55°31' E 015°04'1312.5
2014-Aug-25 09:32N 55°25' E 014°44'1212.3
2014-Aug-25 08:33N 55°17' E 014°29'2311.6
2014-Aug-25 06:33N 55°11' E 013°49'2613.1
2014-Aug-25 04:33N 55°13' E 013°04'1312.6
2014-Aug-25 03:33N 55°16' E 012°42'1110.7
2014-Aug-25 02:33N 55°27' E 012°40'1211.7
2014-Aug-25 01:33N 55°39' E 012°41'1212.2
2014-Aug-25 00:33N 55°51' E 012°41'1212.0
2014-Aug-24 23:33N 56°03' E 012°38'1312.9
2014-Aug-24 22:33N 56°11' E 012°20'1212.2
2014-Aug-24 21:33N 56°18' E 012°03'5713.0
2014-Aug-24 17:11N 57°12' E 011°33'812.9
2014-Aug-24 16:33N 57°20' E 011°28'1312.6
2014-Aug-24 15:33N 57°28' E 011°11'1312.8
2014-Aug-24 14:33N 57°36' E 010°51'10 6.7
2014-Aug-24 13:07N 57°42' E 010°36'0 0.1
2014-Aug-24 12:31N 57°42' E 010°36'0 0.0
2014-Aug-24 11:31N 57°42' E 010°36'3 2.9
2014-Aug-24 10:33N 57°43' E 010°41'8 8.5
2014-Aug-24 09:34N 57°47' E 010°27'1313.1
2014-Aug-24 08:33N 57°48' E 010°02'12012.0
2014-Aug-23 22:33N 58°08' E 006°19'1111.4
2014-Aug-23 21:33N 58°16' E 006°03'1211.8
2014-Aug-23 20:33N 58°24' E 005°47'1211.5
2014-Aug-23 19:32N 58°33' E 005°33'52 3.2
2014-Aug-23 03:31N 59°23' E 006°03'0 0.0
2014-Aug-23 02:31N 59°23' E 006°03'0 0.0
2014-Aug-23 01:31N 59°23' E 006°03'0 0.0
2014-Aug-23 00:31N 59°23' E 006°03'0 0.0
2014-Aug-22 23:31N 59°23' E 006°03'0 0.0
2014-Aug-22 22:31N 59°23' E 006°03'4 4.3
2014-Aug-22 21:33N 59°20' E 005°56'1413.7
2014-Aug-22 20:33N 59°11' E 005°36'1312.6
2014-Aug-22 19:33N 59°01' E 005°21'1211.5
2014-Aug-22 18:31N 58°50' E 005°23'0 0.0
2014-Aug-22 17:31N 58°50' E 005°23'0 0.0
2014-Aug-22 16:31N 58°50' E 005°23'0 0.0
2014-Aug-22 15:31N 58°50' E 005°23'0 0.0
2014-Aug-22 14:31N 58°50' E 005°23'0 0.0
2014-Aug-22 13:31N 58°50' E 005°23'0 0.0
2014-Aug-22 12:31N 58°50' E 005°23'0 0.0
2014-Aug-22 11:31N 58°50' E 005°23'0 0.0
2014-Aug-22 10:31N 58°50' E 005°23'0 0.0
2014-Aug-22 09:31N 58°50' E 005°23'0 0.0
2014-Aug-22 08:28N 58°50' E 005°23'0 0.0
2014-Aug-22 07:31N 58°50' E 005°23'0 0.0
2014-Aug-22 06:31N 58°50' E 005°23'0 0.0
2014-Aug-22 05:31N 58°50' E 005°23'0 0.0
2014-Aug-22 04:31N 58°50' E 005°23'0 0.0
2014-Aug-22 03:31N 58°50' E 005°23'0 0.0
2014-Aug-22 02:31N 58°50' E 005°23'0 0.0
2014-Aug-22 01:31N 58°50' E 005°23'0 0.0
2014-Aug-22 00:31N 58°50' E 005°23'0 0.0
2014-Aug-21 23:31N 58°50' E 005°23'0 0.1
2014-Aug-21 22:31N 58°50' E 005°23'0 0.0
2014-Aug-21 21:31N 58°49' E 005°23'0 0.0
2014-Aug-21 20:31N 58°49' E 005°23'0 0.0
2014-Aug-21 19:31N 58°49' E 005°23'8 7.9
2014-Aug-21 18:33N 58°45' E 005°11'308 7.9
2014-Aug-20 03:18N 55°08' W 001°31'0 0.0
2014-Aug-20 02:33N 55°08' W 001°31'0 0.0
2014-Aug-20 01:33N 55°08' W 001°31'0 0.0
2014-Aug-20 00:27N 55°08' W 001°31'0 0.0
2014-Aug-19 23:27N 55°08' W 001°31'0 0.0
2014-Aug-19 16:24N 55°08' W 001°31'22 2.5
2014-Aug-19 07:26N 55°02' W 000°54'1011.5
2014-Aug-19 06:33N 54°60' W 000°37'1211.8
2014-Aug-19 05:33N 54°58' W 000°16'1311.3
2014-Aug-19 04:24N 54°52' E 000°04'1011.5
2014-Aug-19 03:33N 54°45' E 000°16'1211.4
2014-Aug-19 02:29N 54°36' E 000°31'1011.2
2014-Aug-19 01:33N 54°29' E 000°44'8011.1
2014-Aug-18 18:19N 53°13' E 001°29'1012.6
2014-Aug-18 17:34N 53°04' E 001°29'1211.8
2014-Aug-18 16:34N 52°54' E 001°40'1111.2
2014-Aug-18 15:33N 52°47' E 001°55'10 9.7
2014-Aug-18 14:30N 52°38' E 002°03'9 9.7
2014-Aug-18 13:33N 52°30' E 002°10'11 9.6
2014-Aug-18 12:27N 52°20' E 002°09'1011.2
2014-Aug-18 11:33N 52°10' E 002°07'1312.3
2014-Aug-18 10:29N 51°57' E 002°13'1212.3
2014-Aug-18 09:29N 51°45' E 002°09'1313.5
2014-Aug-18 08:33N 51°34' E 001°59'1110.7
2014-Aug-18 07:33N 51°24' E 002°04'1211.3
2014-Aug-18 06:29N 51°12' E 001°59'1314.6
2014-Aug-18 05:33N 51°06' E 001°40'4113.8
2014-Aug-18 02:34N 50°32' E 001°02'1413.7
2014-Aug-18 01:33N 50°27' E 000°42'1413.9
2014-Aug-18 00:33N 50°23' E 000°21'25212.6
2014-Aug-17 04:33N 48°46' W 005°36'  

Dump ship's entire track history